Parma, Missouri
Current Conditions -  °F | °C
As of 12:53 PM on Friday 21 Nov 2014 (Local Time) from KPOF Reporting Station
Overcast Overcast  
Wind Chill: 38°   Ceiling: 2400
Heat Index: 43°   Visibility: 10mi
Dew Point: 27°   Wind: 9mph
Humidity: 53%   Direction: 90°E
Pressure: 30.33"   Gusts: NA
Location:  36.61°N, 89.82°W
Report Text: KPOF 211853Z AUTO 09008KT 10SM BKN024 OVC030 06/M03 A3033 RMK AO2 SLP274 T00611028
Loading
Personal Weather Stations






























Interactive Weather Map New forecast layout! Learn more

10-Day Weather Forecast

Advertisements
Track Severe Weather on mobile